메인 페이지
METAR-TAF:

METAR-TAF

공항 :

하츠필드 잭슨 애틀랜타 국제공항

애틀랜타, 조지아, 미국

위도: 33-38-25N, 경도: 084-25-37W, 고도: 313m

현재 날씨관측

예보는 28분 전, 00:52시(UTC)에 발표되었습니다.
북북서7kt
온도 13°C
습도 47%
기압 1018 hPa
시정: 16.1km
고도 4000ft 상공 구름 많음

METAR: KATL 170052Z 34007KT 10SM BKN040 13/02 A3006 RMK AO2 SLP182 T01280017 $

시각: 20:20 (01:20 UTC)

예보

예보는 2 시간 0분 전, 23:20시(UTC)에 발표되었습니다.
예보 대상 시간: 17일 00시부터 18일 06시까지 (UTC)
7kt
시정: 10km
고도 4000ft 상공 구름 보통
17일 0400시부터 (UTC)
북동6kt
시정: 10km
맑음
17일 1900시부터 (UTC)
북서5kt
시정: 10km
고도 25000ft 상공 구름 조금
18일 0000시부터 (UTC)
여러 방향의 바람 3kt
시정: 10km
고도 25000ft 상공 구름 보통

TAF: KATL 162320Z 1700/1806 01007KT P6SM SCT040 FM170400 04006KT P6SM SKC FM171900 32005KT P6SM FEW250 FM180000 VRB03KT P6SM SCT250

4,000개 이상의 공항 관측 자료 및 예보 (METAR 및 TAF 보고).

지도상에서 검색 가능한 기상관측소가 노란 점과 빨간 점으로 표시되어 있습니다.

기상관측소 명을 보려면 표시 위로 마우스를 이동하세요.

날씨 관측과 예보를 보려면 클릭하세요.

지도 변경 : 확대하려면 엑스 표시가 있는 녹색 버튼, 축소하려면 빼기 표시가 있는 녹색 버튼, 다음 페이지의 지도를 보려면 녹색 화살표를 클릭하세요.


METAR-TAF: